sensor_id;sensor_type;location;lat;lon;timestamp;pressure;altitude;pressure_sealevel;temperature;humidity
9419;BME280;4748;50.802;7.132;2023-06-22T03:31:11;101059.50;;;22.53;100.00
9419;BME280;4748;50.802;7.132;2023-06-22T03:33:36;101056.75;;;22.53;100.00
9419;BME280;4748;50.802;7.132;2023-06-22T03:36:02;101055.97;;;22.53;100.00
9419;BME280;4748;50.802;7.132;2023-06-22T03:38:27;101053.31;;;22.43;100.00
9419;BME280;4748;50.802;7.132;2023-06-22T03:40:53;101048.44;;;22.40;100.00
9419;BME280;4748;50.802;7.132;2023-06-22T03:43:18;101040.63;;;22.28;100.00
9419;BME280;4748;50.802;7.132;2023-06-22T03:45:43;101036.25;;;22.32;100.00
9419;BME280;4748;50.802;7.132;2023-06-22T03:48:11;101030.78;;;22.32;100.00
9419;BME280;4748;50.802;7.132;2023-06-22T03:50:36;101029.38;;;22.35;100.00
9419;BME280;4748;50.802;7.132;2023-06-22T03:53:01;101035.97;;;22.29;100.00
9419;BME280;4748;50.802;7.132;2023-06-22T03:55:27;101034.59;;;22.31;100.00
9419;BME280;4748;50.802;7.132;2023-06-22T03:57:53;101037.56;;;22.35;100.00
9419;BME280;4748;50.802;7.132;2023-06-22T04:00:22;101035.94;;;22.34;100.00
9419;BME280;4748;50.802;7.132;2023-06-22T04:02:47;101044.56;;;22.46;100.00
9419;BME280;4748;50.802;7.132;2023-06-22T04:05:13;101031.78;;;22.41;100.00
9419;BME280;4748;50.802;7.132;2023-06-22T04:07:38;101037.53;;;22.40;100.00
9419;BME280;4748;50.802;7.132;2023-06-22T04:10:05;101034.50;;;22.41;100.00
9419;BME280;4748;50.802;7.132;2023-06-22T04:12:30;101026.31;;;22.41;100.00
9419;BME280;4748;50.802;7.132;2023-06-22T04:14:55;101020.38;;;22.34;100.00
9419;BME280;4748;50.802;7.132;2023-06-22T04:17:21;101024.09;;;22.43;100.00
9419;BME280;4748;50.802;7.132;2023-06-22T04:19:46;101016.56;;;22.35;100.00
9419;BME280;4748;50.802;7.132;2023-06-22T04:22:11;101006.75;;;22.29;100.00
9419;BME280;4748;50.802;7.132;2023-06-22T04:24:37;101013.91;;;22.25;100.00
9419;BME280;4748;50.802;7.132;2023-06-22T04:27:03;101014.84;;;22.39;100.00
9419;BME280;4748;50.802;7.132;2023-06-22T04:29:31;101015.09;;;22.43;100.00
9419;BME280;4748;50.802;7.132;2023-06-22T04:31:57;101014.34;;;22.37;100.00
9419;BME280;4748;50.802;7.132;2023-06-22T04:34:24;101011.09;;;22.35;100.00
9419;BME280;4748;50.802;7.132;2023-06-22T04:36:53;101013.81;;;22.35;100.00
9419;BME280;4748;50.802;7.132;2023-06-22T04:39:18;101009.50;;;22.29;100.00
9419;BME280;4748;50.802;7.132;2023-06-22T04:41:44;101013.56;;;22.32;100.00
9419;BME280;4748;50.802;7.132;2023-06-22T04:44:17;101005.16;;;22.28;100.00
9419;BME280;4748;50.802;7.132;2023-06-22T04:46:53;101002.22;;;22.48;100.00
9419;BME280;4748;50.802;7.132;2023-06-22T04:49:20;101007.63;;;22.53;100.00
9419;BME280;4748;50.802;7.132;2023-06-22T04:51:46;101018.72;;;22.61;100.00
9419;BME280;4748;50.802;7.132;2023-06-22T04:54:11;101025.84;;;22.57;100.00
9419;BME280;4748;50.802;7.132;2023-06-22T04:56:37;101022.72;;;22.69;100.00
9419;BME280;4748;50.802;7.132;2023-06-22T04:59:03;101023.84;;;22.68;100.00
9419;BME280;4748;50.802;7.132;2023-06-22T05:01:29;101010.97;;;22.73;100.00
9419;BME280;4748;50.802;7.132;2023-06-22T05:03:56;101009.53;;;22.76;100.00
9419;BME280;4748;50.802;7.132;2023-06-22T05:06:23;101006.34;;;22.69;100.00
9419;BME280;4748;50.802;7.132;2023-06-22T05:08:53;101005.63;;;22.63;100.00
9419;BME280;4748;50.802;7.132;2023-06-22T05:11:26;101000.16;;;22.63;100.00
9419;BME280;4748;50.802;7.132;2023-06-22T05:13:53;101010.13;;;22.73;100.00
9419;BME280;4748;50.802;7.132;2023-06-22T05:16:18;101009.53;;;22.76;100.00
9419;BME280;4748;50.802;7.132;2023-06-22T05:18:49;101019.03;;;22.83;100.00
9419;BME280;4748;50.802;7.132;2023-06-22T05:21:15;101019.34;;;23.05;100.00
9419;BME280;4748;50.802;7.132;2023-06-22T05:23:40;101021.81;;;23.25;100.00
9419;BME280;4748;50.802;7.132;2023-06-22T05:26:05;101019.69;;;23.59;100.00
9419;BME280;4748;50.802;7.132;2023-06-22T05:28:34;101026.78;;;23.96;100.00
9419;BME280;4748;50.802;7.132;2023-06-22T05:30:59;101031.03;;;24.20;100.00
9419;BME280;4748;50.802;7.132;2023-06-22T05:33:25;101026.97;;;24.50;100.00
9419;BME280;4748;50.802;7.132;2023-06-22T05:35:50;101026.66;;;24.51;100.00
9419;BME280;4748;50.802;7.132;2023-06-22T05:38:15;101025.78;;;24.69;100.00
9419;BME280;4748;50.802;7.132;2023-06-22T05:40:41;101019.91;;;24.89;100.00
9419;BME280;4748;50.802;7.132;2023-06-22T05:43:06;101021.09;;;24.83;100.00
9419;BME280;4748;50.802;7.132;2023-06-22T05:45:31;101028.03;;;25.20;100.00
9419;BME280;4748;50.802;7.132;2023-06-22T05:47:57;101040.91;;;25.47;100.00
9419;BME280;4748;50.802;7.132;2023-06-22T05:50:22;101032.41;;;25.21;100.00
9419;BME280;4748;50.802;7.132;2023-06-22T05:52:47;101034.84;;;25.10;100.00
9419;BME280;4748;50.802;7.132;2023-06-22T05:55:13;101030.25;;;25.32;100.00
9419;BME280;4748;50.802;7.132;2023-06-22T05:57:38;101038.91;;;25.12;100.00
9419;BME280;4748;50.802;7.132;2023-06-22T06:00:04;101035.97;;;25.22;100.00
9419;BME280;4748;50.802;7.132;2023-06-22T06:02:33;101034.81;;;25.36;100.00
9419;BME280;4748;50.802;7.132;2023-06-22T06:04:59;101042.75;;;24.98;100.00
9419;BME280;4748;50.802;7.132;2023-06-22T06:07:24;101044.72;;;25.11;100.00
9419;BME280;4748;50.802;7.132;2023-06-22T06:09:49;101042.66;;;25.03;100.00
9419;BME280;4748;50.802;7.132;2023-06-22T06:12:14;101041.78;;;25.07;100.00
9419;BME280;4748;50.802;7.132;2023-06-22T06:14:40;101039.78;;;24.94;100.00
9419;BME280;4748;50.802;7.132;2023-06-22T06:17:05;101044.69;;;24.97;100.00
9419;BME280;4748;50.802;7.132;2023-06-22T06:19:30;101036.56;;;24.79;100.00
9419;BME280;4748;50.802;7.132;2023-06-22T06:21:56;101041.81;;;24.75;100.00
9419;BME280;4748;50.802;7.132;2023-06-22T06:24:21;101047.81;;;24.91;100.00
9419;BME280;4748;50.802;7.132;2023-06-22T06:26:46;101051.59;;;24.95;100.00
9419;BME280;4748;50.802;7.132;2023-06-22T06:29:12;101051.66;;;24.90;100.00
9419;BME280;4748;50.802;7.132;2023-06-22T06:31:38;101053.41;;;24.86;100.00
9419;BME280;4748;50.802;7.132;2023-06-22T06:34:03;101057.03;;;24.81;100.00
9419;BME280;4748;50.802;7.132;2023-06-22T06:36:28;101067.41;;;24.84;100.00
9419;BME280;4748;50.802;7.132;2023-06-22T06:38:53;101070.97;;;24.85;100.00
9419;BME280;4748;50.802;7.132;2023-06-22T06:41:19;101070.13;;;24.84;100.00
9419;BME280;4748;50.802;7.132;2023-06-22T06:43:44;101075.03;;;24.87;100.00
9419;BME280;4748;50.802;7.132;2023-06-22T06:46:10;101072.31;;;25.01;100.00
9419;BME280;4748;50.802;7.132;2023-06-22T06:48:35;101064.28;;;24.91;100.00
9419;BME280;4748;50.802;7.132;2023-06-22T06:51:00;101047.72;;;24.82;100.00
9419;BME280;4748;50.802;7.132;2023-06-22T06:53:26;101035.66;;;25.23;100.00
9419;BME280;4748;50.802;7.132;2023-06-22T06:55:52;101033.91;;;25.41;100.00
9419;BME280;4748;50.802;7.132;2023-06-22T06:58:17;101023.09;;;25.58;100.00
9419;BME280;4748;50.802;7.132;2023-06-22T07:00:43;101030.72;;;25.96;100.00
9419;BME280;4748;50.802;7.132;2023-06-22T07:03:08;101029.34;;;26.07;100.00
9419;BME280;4748;50.802;7.132;2023-06-22T07:05:34;101027.72;;;26.27;100.00
9419;BME280;4748;50.802;7.132;2023-06-22T07:08:00;101022.22;;;26.06;100.00
9419;BME280;4748;50.802;7.132;2023-06-22T07:10:26;101014.50;;;26.08;100.00
9419;BME280;4748;50.802;7.132;2023-06-22T07:12:51;101005.81;;;26.14;100.00
9419;BME280;4748;50.802;7.132;2023-06-22T07:15:16;101001.28;;;25.88;100.00
9419;BME280;4748;50.802;7.132;2023-06-22T07:17:42;101008.75;;;26.18;100.00
9419;BME280;4748;50.802;7.132;2023-06-22T07:20:08;101013.47;;;26.25;100.00
9419;BME280;4748;50.802;7.132;2023-06-22T07:22:38;101012.47;;;26.21;100.00
9419;BME280;4748;50.802;7.132;2023-06-22T07:25:04;101014.09;;;26.22;100.00
9419;BME280;4748;50.802;7.132;2023-06-22T07:27:43;101004.53;;;26.33;100.00
9419;BME280;4748;50.802;7.132;2023-06-22T07:30:10;101005.56;;;26.24;100.00
9419;BME280;4748;50.802;7.132;2023-06-22T07:32:36;101006.56;;;26.28;100.00
9419;BME280;4748;50.802;7.132;2023-06-22T07:35:02;100997.94;;;26.43;100.00
9419;BME280;4748;50.802;7.132;2023-06-22T07:37:28;100997.81;;;26.48;100.00
9419;BME280;4748;50.802;7.132;2023-06-22T07:39:54;100994.88;;;26.74;100.00
9419;BME280;4748;50.802;7.132;2023-06-22T07:42:27;101002.88;;;26.93;100.00
9419;BME280;4748;50.802;7.132;2023-06-22T07:44:53;101000.03;;;26.76;100.00
9419;BME280;4748;50.802;7.132;2023-06-22T07:47:19;100992.75;;;27.10;100.00
9419;BME280;4748;50.802;7.132;2023-06-22T07:49:48;100990.31;;;27.09;100.00
9419;BME280;4748;50.802;7.132;2023-06-22T07:52:13;100969.94;;;27.26;100.00
9419;BME280;4748;50.802;7.132;2023-06-22T07:54:38;100967.09;;;27.82;100.00
9419;BME280;4748;50.802;7.132;2023-06-22T07:57:04;100962.69;;;27.89;100.00
9419;BME280;4748;50.802;7.132;2023-06-22T07:59:30;100972.19;;;28.26;100.00
9419;BME280;4748;50.802;7.132;2023-06-22T08:01:55;100974.50;;;28.24;100.00
9419;BME280;4748;50.802;7.132;2023-06-22T08:04:20;100972.19;;;28.26;100.00
9419;BME280;4748;50.802;7.132;2023-06-22T08:06:46;100971.44;;;27.83;100.00
9419;BME280;4748;50.802;7.132;2023-06-22T08:09:11;100972.06;;;27.97;100.00
9419;BME280;4748;50.802;7.132;2023-06-22T08:11:37;100962.34;;;28.16;100.00
9419;BME280;4748;50.802;7.132;2023-06-22T08:14:02;100959.59;;;28.62;100.00
9419;BME280;4748;50.802;7.132;2023-06-22T08:16:28;100958.94;;;28.73;100.00
9419;BME280;4748;50.802;7.132;2023-06-22T08:18:53;100951.06;;;28.83;100.00
9419;BME280;4748;50.802;7.132;2023-06-22T08:21:19;100947.84;;;28.82;100.00
9419;BME280;4748;50.802;7.132;2023-06-22T08:23:45;100949.38;;;28.62;100.00
9419;BME280;4748;50.802;7.132;2023-06-22T08:26:10;100930.81;;;28.42;100.00
9419;BME280;4748;50.802;7.132;2023-06-22T08:28:35;100924.38;;;28.67;100.00
9419;BME280;4748;50.802;7.132;2023-06-22T08:31:02;100932.00;;;28.70;100.00
9419;BME280;4748;50.802;7.132;2023-06-22T08:33:27;100929.06;;;28.75;100.00
9419;BME280;4748;50.802;7.132;2023-06-22T08:35:55;100913.88;;;29.38;100.00
9419;BME280;4748;50.802;7.132;2023-06-22T08:38:21;100921.69;;;28.87;100.00
9419;BME280;4748;50.802;7.132;2023-06-22T08:40:46;100910.72;;;28.99;100.00
9419;BME280;4748;50.802;7.132;2023-06-22T08:43:12;100907.91;;;28.50;100.00
9419;BME280;4748;50.802;7.132;2023-06-22T08:45:37;100903.59;;;28.70;100.00
9419;BME280;4748;50.802;7.132;2023-06-22T08:48:02;100907.38;;;28.57;100.00
9419;BME280;4748;50.802;7.132;2023-06-22T08:50:28;100901.44;;;28.46;100.00
9419;BME280;4748;50.802;7.132;2023-06-22T08:52:53;100889.47;;;28.42;100.00
9419;BME280;4748;50.802;7.132;2023-06-22T08:55:19;100888.22;;;28.32;100.00
9419;BME280;4748;50.802;7.132;2023-06-22T08:57:44;100880.72;;;28.40;100.00
9419;BME280;4748;50.802;7.132;2023-06-22T09:00:10;100881.53;;;28.41;100.00
9419;BME280;4748;50.802;7.132;2023-06-22T09:02:43;100886.66;;;28.51;100.00
9419;BME280;4748;50.802;7.132;2023-06-22T09:05:09;100886.31;;;28.52;100.00
9419;BME280;4748;50.802;7.132;2023-06-22T09:07:34;100872.25;;;28.45;100.00
9419;BME280;4748;50.802;7.132;2023-06-22T09:10:00;100868.88;;;28.77;100.00
9419;BME280;4748;50.802;7.132;2023-06-22T09:12:25;100856.56;;;28.95;100.00
9419;BME280;4748;50.802;7.132;2023-06-22T09:14:52;100852.13;;;28.82;100.00
9419;BME280;4748;50.802;7.132;2023-06-22T09:17:18;100845.06;;;29.13;100.00
9419;BME280;4748;50.802;7.132;2023-06-22T09:19:44;100837.94;;;29.12;100.00
9419;BME280;4748;50.802;7.132;2023-06-22T09:22:09;100840.63;;;29.00;100.00
9419;BME280;4748;50.802;7.132;2023-06-22T09:24:34;100828.09;;;29.03;100.00
9419;BME280;4748;50.802;7.132;2023-06-22T09:27:00;100819.41;;;29.13;100.00
9419;BME280;4748;50.802;7.132;2023-06-22T09:29:25;100818.66;;;29.24;100.00
9419;BME280;4748;50.802;7.132;2023-06-22T09:31:51;100808.19;;;29.38;100.00
9419;BME280;4748;50.802;7.132;2023-06-22T09:34:18;100805.50;;;29.62;100.00
9419;BME280;4748;50.802;7.132;2023-06-22T09:36:48;100805.44;;;29.50;100.00
9419;BME280;4748;50.802;7.132;2023-06-22T09:39:14;100806.75;;;29.64;100.00
9419;BME280;4748;50.802;7.132;2023-06-22T09:41:39;100805.44;;;29.94;100.00
9419;BME280;4748;50.802;7.132;2023-06-22T09:44:04;100802.47;;;30.11;100.00
9419;BME280;4748;50.802;7.132;2023-06-22T09:46:30;100801.09;;;30.29;100.00
9419;BME280;4748;50.802;7.132;2023-06-22T09:48:55;100792.78;;;30.17;100.00
9419;BME280;4748;50.802;7.132;2023-06-22T09:51:20;100797.50;;;30.28;100.00
9419;BME280;4748;50.802;7.132;2023-06-22T09:53:47;100796.56;;;29.44;100.00
9419;BME280;4748;50.802;7.132;2023-06-22T09:56:12;100806.75;;;29.64;100.00
9419;BME280;4748;50.802;7.132;2023-06-22T09:58:41;100808.44;;;29.45;100.00
9419;BME280;4748;50.802;7.132;2023-06-22T10:01:07;100809.41;;;29.29;100.00
9419;BME280;4748;50.802;7.132;2023-06-22T10:03:32;100811.13;;;29.13;100.00
9419;BME280;4748;50.802;7.132;2023-06-22T10:05:57;100810.47;;;28.75;100.00
9419;BME280;4748;50.802;7.132;2023-06-22T10:08:23;100811.97;;;28.73;100.00
9419;BME280;4748;50.802;7.132;2023-06-22T10:10:48;100822.16;;;28.72;100.00
9419;BME280;4748;50.802;7.132;2023-06-22T10:13:13;100821.78;;;28.82;100.00
9419;BME280;4748;50.802;7.132;2023-06-22T10:15:40;100833.44;;;28.59;100.00
9419;BME280;4748;50.802;7.132;2023-06-22T10:18:05;100844.97;;;28.52;100.00
9419;BME280;4748;50.802;7.132;2023-06-22T10:20:31;100847.47;;;28.37;100.00
9419;BME280;4748;50.802;7.132;2023-06-22T10:22:56;100849.06;;;28.18;100.00
9419;BME280;4748;50.802;7.132;2023-06-22T10:25:22;100851.94;;;28.21;100.00
9419;BME280;4748;50.802;7.132;2023-06-22T10:27:47;100862.19;;;28.12;100.00
9419;BME280;4748;50.802;7.132;2023-06-22T10:30:13;100887.00;;;28.04;100.00
9419;BME280;4748;50.802;7.132;2023-06-22T10:32:39;100894.63;;;27.98;100.00
9419;BME280;4748;50.802;7.132;2023-06-22T10:35:06;100899.69;;;27.88;100.00
9419;BME280;4748;50.802;7.132;2023-06-22T10:37:32;100912.16;;;27.77;100.00
9419;BME280;4748;50.802;7.132;2023-06-22T10:39:57;100905.53;;;27.78;100.00
9419;BME280;4748;50.802;7.132;2023-06-22T10:42:23;100887.41;;;27.60;100.00
9419;BME280;4748;50.802;7.132;2023-06-22T10:44:48;100892.13;;;27.60;100.00
9419;BME280;4748;50.802;7.132;2023-06-22T10:47:14;100891.31;;;27.42;100.00
9419;BME280;4748;50.802;7.132;2023-06-22T10:49:39;100887.09;;;27.20;100.00
9419;BME280;4748;50.802;7.132;2023-06-22T10:52:06;100886.44;;;27.06;100.00
9419;BME280;4748;50.802;7.132;2023-06-22T10:54:32;100883.34;;;26.99;100.00
9419;BME280;4748;50.802;7.132;2023-06-22T10:56:59;100890.91;;;26.85;100.00
9419;BME280;4748;50.802;7.132;2023-06-22T10:59:24;100911.25;;;26.75;100.00
9419;BME280;4748;50.802;7.132;2023-06-22T11:01:51;100944.31;;;26.54;100.00
9419;BME280;4748;50.802;7.132;2023-06-22T11:04:16;100957.44;;;26.05;100.00
9419;BME280;4748;50.802;7.132;2023-06-22T11:06:42;100939.22;;;25.65;100.00
9419;BME280;4748;50.802;7.132;2023-06-22T11:09:08;100918.44;;;25.51;100.00
9419;BME280;4748;50.802;7.132;2023-06-22T11:11:33;100874.50;;;25.20;100.00
9419;BME280;4748;50.802;7.132;2023-06-22T11:13:58;100855.47;;;24.89;100.00
9419;BME280;4748;50.802;7.132;2023-06-22T11:16:24;100865.81;;;24.92;100.00
9419;BME280;4748;50.802;7.132;2023-06-22T11:18:50;100876.88;;;24.87;100.00
9419;BME280;4748;50.802;7.132;2023-06-22T11:21:15;100897.09;;;24.91;100.00
9419;BME280;4748;50.802;7.132;2023-06-22T11:23:41;100887.94;;;24.95;100.00
9419;BME280;4748;50.802;7.132;2023-06-22T11:26:07;100856.84;;;25.00;100.00
9419;BME280;4748;50.802;7.132;2023-06-22T11:28:32;100801.28;;;24.86;100.00
9419;BME280;4748;50.802;7.132;2023-06-22T11:30:58;100774.00;;;24.81;100.00
9419;BME280;4748;50.802;7.132;2023-06-22T11:33:24;100771.44;;;24.84;100.00
9419;BME280;4748;50.802;7.132;2023-06-22T11:35:49;100788.19;;;24.83;100.00
9419;BME280;4748;50.802;7.132;2023-06-22T11:38:15;100774.47;;;24.83;100.00
9419;BME280;4748;50.802;7.132;2023-06-22T11:40:40;100772.91;;;25.04;100.00
9419;BME280;4748;50.802;7.132;2023-06-22T11:43:05;100774.34;;;25.23;100.00
9419;BME280;4748;50.802;7.132;2023-06-22T11:45:31;100784.59;;;25.39;100.00
9419;BME280;4748;50.802;7.132;2023-06-22T11:47:56;100776.72;;;26.07;100.00
9419;BME280;4748;50.802;7.132;2023-06-22T11:50:22;100782.50;;;26.35;100.00
9419;BME280;4748;50.802;7.132;2023-06-22T11:52:47;100789.31;;;26.46;100.00
9419;BME280;4748;50.802;7.132;2023-06-22T11:55:13;100779.78;;;26.61;100.00
9419;BME280;4748;50.802;7.132;2023-06-22T11:57:53;100779.13;;;26.47;100.00
9419;BME280;4748;50.802;7.132;2023-06-22T12:00:19;100758.34;;;26.24;100.00
9419;BME280;4748;50.802;7.132;2023-06-22T12:02:45;100737.47;;;26.06;100.00
9419;BME280;4748;50.802;7.132;2023-06-22T12:05:11;100738.91;;;25.95;100.00
9419;BME280;4748;50.802;7.132;2023-06-22T12:07:37;100727.22;;;25.81;100.00
9419;BME280;4748;50.802;7.132;2023-06-22T12:10:03;100719.50;;;25.92;100.00
9419;BME280;4748;50.802;7.132;2023-06-22T12:12:29;100713.06;;;26.05;100.00
9419;BME280;4748;50.802;7.132;2023-06-22T12:14:54;100709.38;;;26.01;100.00
9419;BME280;4748;50.802;7.132;2023-06-22T12:17:20;100721.50;;;26.08;100.00
9419;BME280;4748;50.802;7.132;2023-06-22T12:19:45;100714.63;;;25.80;100.00
9419;BME280;4748;50.802;7.132;2023-06-22T12:22:12;100701.50;;;25.69;100.00
9419;BME280;4748;50.802;7.132;2023-06-22T12:24:37;100700.44;;;25.78;100.00
9419;BME280;4748;50.802;7.132;2023-06-22T12:27:03;100693.84;;;25.58;100.00
9419;BME280;4748;50.802;7.132;2023-06-22T12:29:29;100689.50;;;25.65;100.00
9419;BME280;4748;50.802;7.132;2023-06-22T12:31:54;100675.13;;;25.51;100.00
9419;BME280;4748;50.802;7.132;2023-06-22T12:34:20;100681.91;;;26.01;100.00
9419;BME280;4748;50.802;7.132;2023-06-22T12:36:45;100678.53;;;26.12;100.00
9419;BME280;4748;50.802;7.132;2023-06-22T12:39:13;100686.47;;;26.22;100.00
9419;BME280;4748;50.802;7.132;2023-06-22T12:41:38;100685.88;;;26.59;100.00
9419;BME280;4748;50.802;7.132;2023-06-22T12:44:04;100689.56;;;26.71;100.00
9419;BME280;4748;50.802;7.132;2023-06-22T12:46:29;100687.00;;;26.74;100.00
9419;BME280;4748;50.802;7.132;2023-06-22T12:49:00;100688.78;;;26.96;100.00
9419;BME280;4748;50.802;7.132;2023-06-22T12:51:26;100676.34;;;26.56;100.00
9419;BME280;4748;50.802;7.132;2023-06-22T12:53:51;100680.53;;;26.71;100.00
9419;BME280;4748;50.802;7.132;2023-06-22T12:56:17;100664.34;;;26.77;100.00
9419;BME280;4748;50.802;7.132;2023-06-22T12:58:42;100666.31;;;26.60;100.00
9419;BME280;4748;50.802;7.132;2023-06-22T13:01:07;100655.94;;;26.66;100.00
9419;BME280;4748;50.802;7.132;2023-06-22T13:03:33;100654.16;;;26.78;100.00
9419;BME280;4748;50.802;7.132;2023-06-22T13:05:58;100649.94;;;27.06;100.00
9419;BME280;4748;50.802;7.132;2023-06-22T13:08:23;100635.59;;;27.29;100.00
9419;BME280;4748;50.802;7.132;2023-06-22T13:10:49;100627.06;;;27.14;100.00
9419;BME280;4748;50.802;7.132;2023-06-22T13:13:14;100629.25;;;27.00;100.00
9419;BME280;4748;50.802;7.132;2023-06-22T13:15:39;100624.59;;;27.29;100.00
9419;BME280;4748;50.802;7.132;2023-06-22T13:18:05;100619.16;;;27.49;100.00
9419;BME280;4748;50.802;7.132;2023-06-22T13:20:30;100631.28;;;27.20;100.00
9419;BME280;4748;50.802;7.132;2023-06-22T13:22:56;100618.91;;;27.34;100.00
9419;BME280;4748;50.802;7.132;2023-06-22T13:25:22;100610.28;;;27.44;100.00
9419;BME280;4748;50.802;7.132;2023-06-22T13:27:51;100607.00;;;27.50;100.00
9419;BME280;4748;50.802;7.132;2023-06-22T13:30:16;100602.50;;;27.75;100.00
9419;BME280;4748;50.802;7.132;2023-06-22T13:32:42;100592.38;;;27.67;100.00
9419;BME280;4748;50.802;7.132;2023-06-22T13:35:11;100578.00;;;27.81;100.00
9419;BME280;4748;50.802;7.132;2023-06-22T13:37:37;100583.06;;;27.79;100.00
9419;BME280;4748;50.802;7.132;2023-06-22T13:40:04;100573.50;;;27.57;100.00
9419;BME280;4748;50.802;7.132;2023-06-22T13:42:31;100574.97;;;27.54;100.00
9419;BME280;4748;50.802;7.132;2023-06-22T13:44:57;100577.38;;;27.56;100.00
9419;BME280;4748;50.802;7.132;2023-06-22T13:47:22;100561.69;;;27.77;100.00
9419;BME280;4748;50.802;7.132;2023-06-22T13:49:47;100544.34;;;27.76;100.00
9419;BME280;4748;50.802;7.132;2023-06-22T13:52:13;100552.44;;;27.61;100.00
9419;BME280;4748;50.802;7.132;2023-06-22T13:54:38;100537.84;;;27.60;100.00
9419;BME280;4748;50.802;7.132;2023-06-22T13:57:04;100525.06;;;27.56;100.00
9419;BME280;4748;50.802;7.132;2023-06-22T13:59:29;100516.59;;;27.69;100.00
9419;BME280;4748;50.802;7.132;2023-06-22T14:01:55;100517.22;;;27.66;100.00
9419;BME280;4748;50.802;7.132;2023-06-22T14:04:23;100501.44;;;27.55;100.00
9419;BME280;4748;50.802;7.132;2023-06-22T14:06:48;100499.97;;;27.57;100.00
9419;BME280;4748;50.802;7.132;2023-06-22T14:09:14;100481.19;;;27.59;100.00
9419;BME280;4748;50.802;7.132;2023-06-22T14:11:39;100476.75;;;27.38;100.00
9419;BME280;4748;50.802;7.132;2023-06-22T14:14:04;100469.25;;;27.26;100.00
9419;BME280;4748;50.802;7.132;2023-06-22T14:16:30;100470.84;;;27.27;100.00
9419;BME280;4748;50.802;7.132;2023-06-22T14:18:55;100446.72;;;27.33;100.00
9419;BME280;4748;50.802;7.132;2023-06-22T14:21:21;100422.81;;;27.25;100.00
9419;BME280;4748;50.802;7.132;2023-06-22T14:23:46;100403.44;;;27.22;100.00
9419;BME280;4748;50.802;7.132;2023-06-22T14:26:17;100421.56;;;27.23;100.00
9419;BME280;4748;50.802;7.132;2023-06-22T14:28:44;100442.34;;;27.12;100.00
9419;BME280;4748;50.802;7.132;2023-06-22T14:31:14;100453.84;;;27.05;100.00
9419;BME280;4748;50.802;7.132;2023-06-22T14:33:39;100447.16;;;26.86;100.00
9419;BME280;4748;50.802;7.132;2023-06-22T14:36:05;100445.41;;;26.81;100.00
9419;BME280;4748;50.802;7.132;2023-06-22T14:38:30;100453.75;;;26.56;100.00
9419;BME280;4748;50.802;7.132;2023-06-22T14:40:55;100478.06;;;26.37;100.00
9419;BME280;4748;50.802;7.132;2023-06-22T14:43:21;100491.81;;;26.37;100.00
9419;BME280;4748;50.802;7.132;2023-06-22T14:45:46;100507.44;;;26.28;100.00
9419;BME280;4748;50.802;7.132;2023-06-22T14:48:11;100450.13;;;26.10;100.00
9419;BME280;4748;50.802;7.132;2023-06-22T14:50:37;100394.03;;;25.23;100.00
9419;BME280;4748;50.802;7.132;2023-06-22T14:53:02;100383.91;;;24.68;100.00
9419;BME280;4748;50.802;7.132;2023-06-22T14:55:27;100388.53;;;24.51;100.00
9419;BME280;4748;50.802;7.132;2023-06-22T14:57:52;100401.53;;;24.37;100.00
9419;BME280;4748;50.802;7.132;2023-06-22T15:00:18;100395.38;;;24.02;100.00
9419;BME280;4748;50.802;7.132;2023-06-22T15:02:44;100383.22;;;23.86;100.00
9419;BME280;4748;50.802;7.132;2023-06-22T15:05:09;100404.25;;;23.77;100.00
9419;BME280;4748;50.802;7.132;2023-06-22T15:07:34;100432.66;;;23.67;100.00
9419;BME280;4748;50.802;7.132;2023-06-22T15:10:00;100488.97;;;23.55;100.00
9419;BME280;4748;50.802;7.132;2023-06-22T15:12:25;100462.69;;;23.32;100.00
9419;BME280;4748;50.802;7.132;2023-06-22T15:14:51;100410.69;;;23.24;100.00
9419;BME280;4748;50.802;7.132;2023-06-22T15:17:17;100391.00;;;23.13;100.00
9419;BME280;4748;50.802;7.132;2023-06-22T15:19:45;100370.28;;;22.86;100.00
9419;BME280;4748;50.802;7.132;2023-06-22T15:22:10;100347.06;;;22.75;100.00
9419;BME280;4748;50.802;7.132;2023-06-22T15:24:35;100313.91;;;22.68;100.00
9419;BME280;4748;50.802;7.132;2023-06-22T15:27:02;100306.81;;;22.67;100.00
9419;BME280;4748;50.802;7.132;2023-06-22T15:29:27;100301.91;;;22.56;100.00
9419;BME280;4748;50.802;7.132;2023-06-22T15:31:53;100297.34;;;22.51;100.00
9419;BME280;4748;50.802;7.132;2023-06-22T15:34:18;100308.69;;;22.45;100.00
9419;BME280;4748;50.802;7.132;2023-06-22T15:36:44;100306.66;;;22.63;100.00
9419;BME280;4748;50.802;7.132;2023-06-22T15:39:10;100325.31;;;22.70;100.00
9419;BME280;4748;50.802;7.132;2023-06-22T15:41:35;100288.72;;;22.57;100.00
9419;BME280;4748;50.802;7.132;2023-06-22T15:44:00;100286.00;;;22.57;100.00
9419;BME280;4748;50.802;7.132;2023-06-22T15:46:26;100301.28;;;22.58;100.00
9419;BME280;4748;50.802;7.132;2023-06-22T15:48:51;100301.50;;;22.62;100.00
9419;BME280;4748;50.802;7.132;2023-06-22T15:51:16;100318.06;;;22.65;100.00
9419;BME280;4748;50.802;7.132;2023-06-22T15:53:42;100320.16;;;22.68;100.00
9419;BME280;4748;50.802;7.132;2023-06-22T15:56:07;100314.91;;;22.72;100.00
9419;BME280;4748;50.802;7.132;2023-06-22T15:58:36;100309.56;;;22.67;100.00
9419;BME280;4748;50.802;7.132;2023-06-22T16:01:02;100299.03;;;22.74;100.00
9419;BME280;4748;50.802;7.132;2023-06-22T16:03:28;100286.78;;;22.71;100.00
9419;BME280;4748;50.802;7.132;2023-06-22T16:05:54;100283.03;;;22.81;100.00
9419;BME280;4748;50.802;7.132;2023-06-22T16:08:19;100282.72;;;22.82;100.00
9419;BME280;4748;50.802;7.132;2023-06-22T16:10:44;100276.94;;;22.84;100.00
9419;BME280;4748;50.802;7.132;2023-06-22T16:13:10;100265.22;;;22.83;100.00
9419;BME280;4748;50.802;7.132;2023-06-22T16:15:35;100254.59;;;22.82;100.00
9419;BME280;4748;50.802;7.132;2023-06-22T16:18:00;100245.41;;;22.78;100.00
9419;BME280;4748;50.802;7.132;2023-06-22T16:20:26;100243.84;;;22.85;100.00
9419;BME280;4748;50.802;7.132;2023-06-22T16:22:51;100258.38;;;22.94;100.00